Kimper, KY (41539)

06:56 PM EST em 21 de Dezembro de 2014 (GMT -0500)
East Kentucky Broadcasting | Change Station
CLOSE
Current Station
Estação Meteorológica Particular
Location: Pikeville, KY
Altitude: 686 ft
Estações Meteorológicas Próximas

Elev 686 ft 37.48 °N, 82.52 °W | Updated 12 seconds ago

Céu Limpo
Céu Limpo
37.8 °F
Aparente 38 °F
N
1.3
Vento Variável Vento de OSO
Gusts 2.2 mph

Hoje
Máxima -- | Mínima -- °F
--% Possibilidade de Precip.
Ontem
Máxima -- | Mínima -- °F
Precip. -- pol
7:40 AM 5:14 PM
Quarto minguante, 0% visible
Pressão 30.14 pol
Visibilidade 10.0 milhas
Nuvens Céu Limpo
Sensação Térmica 38 °F
Ponto de Orvalho 22 °F
Humidade 53%
Chuva 0.00 pol
Altura de Neve Não disponível
UV 0 em vez de 12
Pólen .10 em vez de 12
Qualidade do Ar Não disponível
Flu Activity Não disponível
METAR KSJS 212335Z AUTO 02004KT 10SM CLR 03/M02 A3014 RMK AO2 T00301023

More Conditions Fewer Conditions

Pressão 30.14 pol
Visibilidade 10.0 milhas
Nuvens Céu Limpo
Sensação Térmica 38 °F
Ponto de Orvalho 22 °F
Humidade 53%
Chuva 0.00 pol
Altura de Neve Não disponível
UV 0 em vez de 12
Pólen .10 em vez de 12
Qualidade do Ar Não disponível
Flu Activity Não disponível
METAR KSJS 212335Z AUTO 02004KT 10SM CLR 03/M02 A3014 RMK AO2 T00301023

More Conditions Fewer Conditions

10-Day Weather Forecast

Almanac

Astronomia

Dec. 21, 2014 Nascer Pôr
Hora atual
Crepúsculo civil
Crepúsculo náutico
Crepúsculo astronómico
Lua
Comprimento da luz visível
Duração do Dia
Tomorrow will be .
, % of the Moon is Illuminated

Extremos de Hoje

situação na parte mais alta situação na parte mais baixa

Community

WunderPhotos

Upload Photos

1,779,505 fotografias inseridas!

WunderBlogs® & News

Nearby

Qualidade do Ar

  Qualidade do Ar Índice da Q.A. Poluente
Not available.

Altura da Neve

Estação altura Altitude

Actividade Sísmisca

Cidade Distância Mag. Hora & Data
Mínima magnitude apresentada é 2.5.

Temperaturas das Águas Costeiras

Local Temperatura

Estações Meteorológicas Próximas